sensor_id;sensor_type;location;lat;lon;timestamp;pressure;altitude;pressure_sealevel;temperature;humidity
47815;BME280;33579;50.058;18.130;2023-11-19T00:00:03;99757.06;;;0.93;100.00
47815;BME280;33579;50.058;18.130;2023-11-19T00:01:08;99752.34;;;1.03;100.00
47815;BME280;33579;50.058;18.130;2023-11-19T00:02:09;99751.28;;;1.08;100.00
47815;BME280;33579;50.058;18.130;2023-11-19T00:03:11;99754.53;;;1.14;100.00
47815;BME280;33579;50.058;18.130;2023-11-19T00:04:13;99756.94;;;1.18;100.00
47815;BME280;33579;50.058;18.130;2023-11-19T00:05:15;99753.31;;;1.22;100.00
47815;BME280;33579;50.058;18.130;2023-11-19T00:06:17;99748.97;;;1.23;100.00
47815;BME280;33579;50.058;18.130;2023-11-19T00:07:19;99747.13;;;1.26;100.00
47815;BME280;33579;50.058;18.130;2023-11-19T00:08:22;99754.16;;;1.23;100.00
47815;BME280;33579;50.058;18.130;2023-11-19T00:09:23;99747.13;;;1.26;100.00
47815;BME280;33579;50.058;18.130;2023-11-19T00:10:25;99746.22;;;1.28;100.00
47815;BME280;33579;50.058;18.130;2023-11-19T00:11:27;99754.00;;;1.28;100.00
47815;BME280;33579;50.058;18.130;2023-11-19T00:12:28;99763.41;;;1.30;100.00
47815;BME280;33579;50.058;18.130;2023-11-19T00:13:30;99758.25;;;1.29;100.00
47815;BME280;33579;50.058;18.130;2023-11-19T00:14:32;99758.22;;;1.30;100.00
47815;BME280;33579;50.058;18.130;2023-11-19T00:15:34;99756.31;;;1.34;100.00
47815;BME280;33579;50.058;18.130;2023-11-19T00:16:36;99752.19;;;1.30;100.00
47815;BME280;33579;50.058;18.130;2023-11-19T00:17:38;99758.25;;;1.29;100.00
47815;BME280;33579;50.058;18.130;2023-11-19T00:18:40;99757.34;;;1.30;100.00
47815;BME280;33579;50.058;18.130;2023-11-19T00:19:42;99752.13;;;1.31;100.00
47815;BME280;33579;50.058;18.130;2023-11-19T00:20:44;99751.13;;;1.34;100.00
47815;BME280;33579;50.058;18.130;2023-11-19T00:21:45;99745.03;;;1.35;100.00
47815;BME280;33579;50.058;18.130;2023-11-19T00:22:47;99748.44;;;1.37;100.00
47815;BME280;33579;50.058;18.130;2023-11-19T00:23:51;99743.38;;;1.34;100.00
47815;BME280;33579;50.058;18.130;2023-11-19T00:24:53;99752.03;;;1.33;100.00
47815;BME280;33579;50.058;18.130;2023-11-19T00:25:55;99745.31;;;1.29;100.00
47815;BME280;33579;50.058;18.130;2023-11-19T00:26:56;99753.13;;;1.27;100.00
47815;BME280;33579;50.058;18.130;2023-11-19T00:27:58;99754.03;;;1.26;100.00
47815;BME280;33579;50.058;18.130;2023-11-19T00:29:00;99753.13;;;1.27;100.00
47815;BME280;33579;50.058;18.130;2023-11-19T00:30:02;99768.69;;;1.27;100.00
47815;BME280;33579;50.058;18.130;2023-11-19T00:31:04;99762.59;;;1.28;100.00
47815;BME280;33579;50.058;18.130;2023-11-19T00:32:06;99765.09;;;1.31;100.00
47815;BME280;33579;50.058;18.130;2023-11-19T00:33:07;99767.59;;;1.33;100.00
47815;BME280;33579;50.058;18.130;2023-11-19T00:34:09;99763.19;;;1.35;100.00
47815;BME280;33579;50.058;18.130;2023-11-19T00:35:11;99763.19;;;1.35;100.00
47815;BME280;33579;50.058;18.130;2023-11-19T00:36:13;99765.59;;;1.39;100.00
47815;BME280;33579;50.058;18.130;2023-11-19T00:37:15;99763.09;;;1.38;100.00
47815;BME280;33579;50.058;18.130;2023-11-19T00:38:17;99750.31;;;1.33;100.00
47815;BME280;33579;50.058;18.130;2023-11-19T00:39:19;99743.50;;;1.31;100.00
47815;BME280;33579;50.058;18.130;2023-11-19T00:40:20;99744.41;;;1.30;100.00
47815;BME280;33579;50.058;18.130;2023-11-19T00:41:22;99737.75;;;1.22;100.00
47815;BME280;33579;50.058;18.130;2023-11-19T00:42:24;99732.56;;;1.22;100.00
47815;BME280;33579;50.058;18.130;2023-11-19T00:43:26;99728.19;;;1.24;100.00
47815;BME280;33579;50.058;18.130;2023-11-19T00:44:28;99728.97;;;1.26;100.00
47815;BME280;33579;50.058;18.130;2023-11-19T00:45:29;99731.47;;;1.28;100.00
47815;BME280;33579;50.058;18.130;2023-11-19T00:46:31;99731.47;;;1.28;100.00
47815;BME280;33579;50.058;18.130;2023-11-19T00:47:33;99735.84;;;1.28;100.00
47815;BME280;33579;50.058;18.130;2023-11-19T00:48:35;99734.03;;;1.30;100.00
47815;BME280;33579;50.058;18.130;2023-11-19T00:49:36;99735.75;;;1.29;100.00
47815;BME280;33579;50.058;18.130;2023-11-19T00:50:38;99734.94;;;1.29;100.00
47815;BME280;33579;50.058;18.130;2023-11-19T00:51:42;99732.34;;;1.29;100.00
47815;BME280;33579;50.058;18.130;2023-11-19T00:52:43;99729.69;;;1.30;100.00
47815;BME280;33579;50.058;18.130;2023-11-19T00:53:45;99736.56;;;1.31;100.00
47815;BME280;33579;50.058;18.130;2023-11-19T00:54:47;99732.34;;;1.29;100.00
47815;BME280;33579;50.058;18.130;2023-11-19T00:55:49;99727.88;;;1.32;100.00
47815;BME280;33579;50.058;18.130;2023-11-19T00:56:52;99722.75;;;1.31;100.00
47815;BME280;33579;50.058;18.130;2023-11-19T00:57:53;99724.53;;;1.30;100.00
47815;BME280;33579;50.058;18.130;2023-11-19T00:58:56;99728.06;;;1.28;100.00
47815;BME280;33579;50.058;18.130;2023-11-19T01:00:01;99723.78;;;1.26;100.00
47815;BME280;33579;50.058;18.130;2023-11-19T01:01:03;99725.41;;;1.29;100.00
47815;BME280;33579;50.058;18.130;2023-11-19T01:02:05;99716.91;;;1.25;100.00
47815;BME280;33579;50.058;18.130;2023-11-19T01:03:07;99705.66;;;1.26;100.00
47815;BME280;33579;50.058;18.130;2023-11-19T01:04:08;99712.56;;;1.26;100.00
47815;BME280;33579;50.058;18.130;2023-11-19T01:05:11;99705.56;;;1.28;100.00
47815;BME280;33579;50.058;18.130;2023-11-19T01:06:12;99710.69;;;1.30;100.00
47815;BME280;33579;50.058;18.130;2023-11-19T01:07:14;99710.75;;;1.28;100.00
47815;BME280;33579;50.058;18.130;2023-11-19T01:08:16;99710.69;;;1.30;100.00
47815;BME280;33579;50.058;18.130;2023-11-19T01:09:18;99701.41;;;1.24;100.00
47815;BME280;33579;50.058;18.130;2023-11-19T01:10:20;99702.38;;;1.21;100.00
47815;BME280;33579;50.058;18.130;2023-11-19T01:11:23;99705.69;;;1.25;100.00
47815;BME280;33579;50.058;18.130;2023-11-19T01:12:25;99705.69;;;1.25;100.00
47815;BME280;33579;50.058;18.130;2023-11-19T01:13:26;99704.88;;;1.24;100.00
47815;BME280;33579;50.058;18.130;2023-11-19T01:14:28;99698.97;;;1.21;100.00
47815;BME280;33579;50.058;18.130;2023-11-19T01:15:33;99688.63;;;1.19;100.00
47815;BME280;33579;50.058;18.130;2023-11-19T01:16:35;99689.69;;;1.15;100.00
47815;BME280;33579;50.058;18.130;2023-11-19T01:17:37;99689.81;;;1.12;100.00
47815;BME280;33579;50.058;18.130;2023-11-19T01:18:39;99681.19;;;1.11;100.00
47815;BME280;33579;50.058;18.130;2023-11-19T01:19:41;99682.91;;;1.11;100.00
47815;BME280;33579;50.058;18.130;2023-11-19T01:20:43;99680.31;;;1.11;100.00
47815;BME280;33579;50.058;18.130;2023-11-19T01:21:45;99681.22;;;1.10;100.00
47815;BME280;33579;50.058;18.130;2023-11-19T01:22:46;99677.69;;;1.12;100.00
47815;BME280;33579;50.058;18.130;2023-11-19T01:23:48;99667.44;;;1.09;100.00
47815;BME280;33579;50.058;18.130;2023-11-19T01:24:50;99669.84;;;1.14;100.00
47815;BME280;33579;50.058;18.130;2023-11-19T01:25:52;99666.34;;;1.15;100.00
47815;BME280;33579;50.058;18.130;2023-11-19T01:26:53;99673.28;;;1.15;100.00
47815;BME280;33579;50.058;18.130;2023-11-19T01:27:55;99666.28;;;1.17;100.00
47815;BME280;33579;50.058;18.130;2023-11-19T01:28:57;99663.81;;;1.14;100.00
47815;BME280;33579;50.058;18.130;2023-11-19T01:29:58;99661.03;;;1.18;100.00
47815;BME280;33579;50.058;18.130;2023-11-19T01:31:00;99659.41;;;1.16;100.00
47815;BME280;33579;50.058;18.130;2023-11-19T01:32:02;99665.31;;;1.19;100.00
47815;BME280;33579;50.058;18.130;2023-11-19T01:33:04;99669.59;;;1.20;100.00
47815;BME280;33579;50.058;18.130;2023-11-19T01:34:06;99657.63;;;1.18;100.00
47815;BME280;33579;50.058;18.130;2023-11-19T01:35:07;99661.91;;;1.19;100.00
47815;BME280;33579;50.058;18.130;2023-11-19T01:36:13;99659.22;;;1.20;100.00
47815;BME280;33579;50.058;18.130;2023-11-19T01:37:15;99658.41;;;1.20;100.00
47815;BME280;33579;50.058;18.130;2023-11-19T01:38:17;99654.94;;;1.19;100.00
47815;BME280;33579;50.058;18.130;2023-11-19T01:39:18;99645.47;;;1.18;100.00
47815;BME280;33579;50.058;18.130;2023-11-19T01:40:21;99634.22;;;1.19;100.00
47815;BME280;33579;50.058;18.130;2023-11-19T01:41:23;99629.94;;;1.18;100.00
47815;BME280;33579;50.058;18.130;2023-11-19T01:42:24;99626.56;;;1.16;100.00
47815;BME280;33579;50.058;18.130;2023-11-19T01:43:37;99629.03;;;1.19;100.00
47815;BME280;33579;50.058;18.130;2023-11-19T01:44:39;99624.03;;;1.15;100.00
47815;BME280;33579;50.058;18.130;2023-11-19T01:45:40;99627.41;;;1.17;100.00
47815;BME280;33579;50.058;18.130;2023-11-19T01:46:44;99622.28;;;1.15;100.00
47815;BME280;33579;50.058;18.130;2023-11-19T01:47:47;99615.53;;;1.11;100.00
47815;BME280;33579;50.058;18.130;2023-11-19T01:48:49;99614.56;;;1.14;100.00
47815;BME280;33579;50.058;18.130;2023-11-19T01:49:51;99598.31;;;1.10;100.00
47815;BME280;33579;50.058;18.130;2023-11-19T01:50:53;99599.03;;;1.14;100.00
47815;BME280;33579;50.058;18.130;2023-11-19T01:52:04;99600.78;;;1.13;100.00
47815;BME280;33579;50.058;18.130;2023-11-19T01:53:06;99589.56;;;1.12;100.00
47815;BME280;33579;50.058;18.130;2023-11-19T01:54:08;99586.84;;;1.16;100.00
47815;BME280;33579;50.058;18.130;2023-11-19T01:55:10;99587.75;;;1.15;100.00
47815;BME280;33579;50.058;18.130;2023-11-19T01:56:14;99582.66;;;1.13;100.00
47815;BME280;33579;50.058;18.130;2023-11-19T01:57:16;99580.97;;;1.12;100.00
47815;BME280;33579;50.058;18.130;2023-11-19T01:58:18;99574.94;;;1.11;100.00
47815;BME280;33579;50.058;18.130;2023-11-19T01:59:20;99575.63;;;1.15;100.00
47815;BME280;33579;50.058;18.130;2023-11-19T02:00:22;99571.41;;;1.12;100.00
47815;BME280;33579;50.058;18.130;2023-11-19T02:01:25;99576.66;;;1.11;100.00
47815;BME280;33579;50.058;18.130;2023-11-19T02:02:27;99569.94;;;1.07;100.00
47815;BME280;33579;50.058;18.130;2023-11-19T02:03:31;99575.19;;;1.05;100.00
47815;BME280;33579;50.058;18.130;2023-11-19T02:04:33;99578.66;;;1.04;100.00
47815;BME280;33579;50.058;18.130;2023-11-19T02:05:35;99576.16;;;1.03;100.00
47815;BME280;33579;50.058;18.130;2023-11-19T02:06:40;99574.66;;;0.97;100.00
47815;BME280;33579;50.058;18.130;2023-11-19T02:07:41;99570.69;;;0.88;100.00
47815;BME280;33579;50.058;18.130;2023-11-19T02:08:44;99574.13;;;0.89;100.00
47815;BME280;33579;50.058;18.130;2023-11-19T02:09:45;99562.84;;;0.90;100.00
47815;BME280;33579;50.058;18.130;2023-11-19T02:10:47;99565.72;;;0.83;100.00
47815;BME280;33579;50.058;18.130;2023-11-19T02:11:49;99558.84;;;0.82;100.00
47815;BME280;33579;50.058;18.130;2023-11-19T02:12:51;99565.63;;;0.85;100.00
47815;BME280;33579;50.058;18.130;2023-11-19T02:13:52;99559.94;;;0.77;100.00
47815;BME280;33579;50.058;18.130;2023-11-19T02:14:54;99554.66;;;0.78;100.00
47815;BME280;33579;50.058;18.130;2023-11-19T02:15:56;99560.94;;;0.73;100.00
47815;BME280;33579;50.058;18.130;2023-11-19T02:16:58;99553.31;;;0.69;100.00
47815;BME280;33579;50.058;18.130;2023-11-19T02:18:19;99558.44;;;0.71;100.00
47815;BME280;33579;50.058;18.130;2023-11-19T02:19:21;99556.03;;;0.66;100.00
47815;BME280;33579;50.058;18.130;2023-11-19T02:20:23;99546.56;;;0.65;100.00
47815;BME280;33579;50.058;18.130;2023-11-19T02:21:25;99550.00;;;0.66;100.00
47815;BME280;33579;50.058;18.130;2023-11-19T02:22:27;99544.03;;;0.64;100.00
47815;BME280;33579;50.058;18.130;2023-11-19T02:23:28;99538.84;;;0.64;100.00
47815;BME280;33579;50.058;18.130;2023-11-19T02:24:32;99536.63;;;0.54;100.00
47815;BME280;33579;50.058;18.130;2023-11-19T02:25:34;99537.63;;;0.52;100.00
47815;BME280;33579;50.058;18.130;2023-11-19T02:26:46;99527.34;;;0.49;100.00
47815;BME280;33579;50.058;18.130;2023-11-19T02:27:57;99524.00;;;0.47;100.00
47815;BME280;33579;50.058;18.130;2023-11-19T02:29:00;99517.84;;;0.49;100.00
47815;BME280;33579;50.058;18.130;2023-11-19T02:30:02;99519.53;;;0.50;100.00
47815;BME280;33579;50.058;18.130;2023-11-19T02:31:04;99513.78;;;0.44;100.00
47815;BME280;33579;50.058;18.130;2023-11-19T02:32:06;99521.06;;;0.34;100.00
47815;BME280;33579;50.058;18.130;2023-11-19T02:33:08;99524.47;;;0.34;100.00
47815;BME280;33579;50.058;18.130;2023-11-19T02:34:10;99510.75;;;0.32;100.00
47815;BME280;33579;50.058;18.130;2023-11-19T02:35:12;99500.41;;;0.32;100.00
47815;BME280;33579;50.058;18.130;2023-11-19T02:36:14;99495.91;;;0.37;100.00
47815;BME280;33579;50.058;18.130;2023-11-19T02:37:15;99490.91;;;0.33;100.00
47815;BME280;33579;50.058;18.130;2023-11-19T02:38:17;99494.16;;;0.38;100.00
47815;BME280;33579;50.058;18.130;2023-11-19T02:39:19;99489.88;;;0.37;100.00
47815;BME280;33579;50.058;18.130;2023-11-19T02:40:21;99490.00;;;0.34;100.00
47815;BME280;33579;50.058;18.130;2023-11-19T02:41:23;99497.50;;;0.40;100.00
47815;BME280;33579;50.058;18.130;2023-11-19T02:42:24;99493.84;;;0.46;100.00
47815;BME280;33579;50.058;18.130;2023-11-19T02:43:26;99491.19;;;0.47;100.00
47815;BME280;33579;50.058;18.130;2023-11-19T02:44:28;99488.53;;;0.49;100.00
47815;BME280;33579;50.058;18.130;2023-11-19T02:45:30;99490.09;;;0.53;100.00
47815;BME280;33579;50.058;18.130;2023-11-19T02:46:32;99478.97;;;0.51;100.00
47815;BME280;33579;50.058;18.130;2023-11-19T02:47:33;99474.50;;;0.54;100.00
47815;BME280;33579;50.058;18.130;2023-11-19T02:48:35;99476.91;;;0.59;100.00
47815;BME280;33579;50.058;18.130;2023-11-19T02:49:37;99479.47;;;0.59;100.00
47815;BME280;33579;50.058;18.130;2023-11-19T02:50:39;99482.16;;;0.58;100.00
47815;BME280;33579;50.058;18.130;2023-11-19T02:51:41;99479.47;;;0.59;100.00
47815;BME280;33579;50.058;18.130;2023-11-19T02:52:45;99482.22;;;0.56;100.00
47815;BME280;33579;50.058;18.130;2023-11-19T02:53:47;99480.25;;;0.61;100.00
47815;BME280;33579;50.058;18.130;2023-11-19T02:54:49;99476.66;;;0.65;100.00
47815;BME280;33579;50.058;18.130;2023-11-19T02:55:51;99472.25;;;0.67;100.00
47815;BME280;33579;50.058;18.130;2023-11-19T02:56:53;99467.03;;;0.69;100.00
47815;BME280;33579;50.058;18.130;2023-11-19T02:57:55;99464.53;;;0.66;100.00
47815;BME280;33579;50.058;18.130;2023-11-19T02:58:56;99470.63;;;0.65;100.00
47815;BME280;33579;50.058;18.130;2023-11-19T02:59:58;99470.69;;;0.63;100.00
47815;BME280;33579;50.058;18.130;2023-11-19T03:01:00;99461.44;;;0.58;100.00
47815;BME280;33579;50.058;18.130;2023-11-19T03:02:02;99459.03;;;0.53;100.00
47815;BME280;33579;50.058;18.130;2023-11-19T03:03:04;99461.53;;;0.54;100.00
47815;BME280;33579;50.058;18.130;2023-11-19T03:04:06;99464.34;;;0.50;100.00
47815;BME280;33579;50.058;18.130;2023-11-19T03:05:08;99464.22;;;0.53;100.00
47815;BME280;33579;50.058;18.130;2023-11-19T03:06:09;99461.69;;;0.51;100.00
47815;BME280;33579;50.058;18.130;2023-11-19T03:07:11;99449.97;;;0.43;100.00
47815;BME280;33579;50.058;18.130;2023-11-19T03:08:13;99445.50;;;0.46;100.00
47815;BME280;33579;50.058;18.130;2023-11-19T03:09:24;99443.16;;;0.40;100.00
47815;BME280;33579;50.058;18.130;2023-11-19T03:10:25;99435.47;;;0.38;100.00
47815;BME280;33579;50.058;18.130;2023-11-19T03:11:27;99429.44;;;0.38;100.00
47815;BME280;33579;50.058;18.130;2023-11-19T03:12:29;99425.03;;;0.40;100.00
47815;BME280;33579;50.058;18.130;2023-11-19T03:13:31;99428.66;;;0.36;100.00
47815;BME280;33579;50.058;18.130;2023-11-19T03:14:36;99420.00;;;0.37;100.00
47815;BME280;33579;50.058;18.130;2023-11-19T03:15:39;99428.81;;;0.33;100.00
47815;BME280;33579;50.058;18.130;2023-11-19T03:16:41;99433.91;;;0.34;100.00
47815;BME280;33579;50.058;18.130;2023-11-19T03:17:43;99432.53;;;0.25;100.00
47815;BME280;33579;50.058;18.130;2023-11-19T03:18:45;99440.16;;;0.28;100.00
47815;BME280;33579;50.058;18.130;2023-11-19T03:19:47;99437.38;;;0.33;100.00
47815;BME280;33579;50.058;18.130;2023-11-19T03:20:48;99426.44;;;0.26;100.00
47815;BME280;33579;50.058;18.130;2023-11-19T03:21:50;99422.31;;;0.22;100.00
47815;BME280;33579;50.058;18.130;2023-11-19T03:22:52;99416.22;;;0.23;100.00
47815;BME280;33579;50.058;18.130;2023-11-19T03:23:54;99423.69;;;0.31;100.00
47815;BME280;33579;50.058;18.130;2023-11-19T03:24:56;99427.22;;;0.28;100.00
47815;BME280;33579;50.058;18.130;2023-11-19T03:25:57;99426.22;;;0.33;100.00
47815;BME280;33579;50.058;18.130;2023-11-19T03:26:59;99433.91;;;0.34;100.00
47815;BME280;33579;50.058;18.130;2023-11-19T03:28:01;99427.81;;;0.35;100.00
47815;BME280;33579;50.058;18.130;2023-11-19T03:29:02;99420.00;;;0.37;100.00
47815;BME280;33579;50.058;18.130;2023-11-19T03:30:05;99428.28;;;0.45;100.00
47815;BME280;33579;50.058;18.130;2023-11-19T03:31:08;99425.56;;;0.48;100.00
47815;BME280;33579;50.058;18.130;2023-11-19T03:32:10;99424.47;;;0.54;100.00
47815;BME280;33579;50.058;18.130;2023-11-19T03:33:12;99416.75;;;0.52;100.00
47815;BME280;33579;50.058;18.130;2023-11-19T03:34:15;99412.31;;;0.56;100.00
47815;BME280;33579;50.058;18.130;2023-11-19T03:35:17;99416.38;;;0.62;100.00
47815;BME280;33579;50.058;18.130;2023-11-19T03:36:19;99413.66;;;0.65;100.00
47815;BME280;33579;50.058;18.130;2023-11-19T03:37:21;99411.16;;;0.63;100.00
47815;BME280;33579;50.058;18.130;2023-11-19T03:38:24;99399.16;;;0.61;100.00
47815;BME280;33579;50.058;18.130;2023-11-19T03:39:25;99407.84;;;0.60;100.00
47815;BME280;33579;50.058;18.130;2023-11-19T03:40:28;99403.56;;;0.59;100.00
47815;BME280;33579;50.058;18.130;2023-11-19T03:41:30;99406.97;;;0.59;100.00
47815;BME280;33579;50.058;18.130;2023-11-19T03:42:42;99406.03;;;0.62;100.00
47815;BME280;33579;50.058;18.130;2023-11-19T03:43:44;99412.16;;;0.59;100.00
47815;BME280;33579;50.058;18.130;2023-11-19T03:44:46;99402.91;;;0.53;100.00
47815;BME280;33579;50.058;18.130;2023-11-19T03:45:48;99408.22;;;0.50;100.00
47815;BME280;33579;50.058;18.130;2023-11-19T03:46:49;99401.38;;;0.49;100.00
47815;BME280;33579;50.058;18.130;2023-11-19T03:47:51;99400.41;;;0.52;100.00
47815;BME280;33579;50.058;18.130;2023-11-19T03:48:53;99397.03;;;0.50;100.00
47815;BME280;33579;50.058;18.130;2023-11-19T03:49:55;99392.06;;;0.45;100.00
47815;BME280;33579;50.058;18.130;2023-11-19T03:50:57;99387.97;;;0.39;100.00
47815;BME280;33579;50.058;18.130;2023-11-19T03:51:58;99388.88;;;0.38;100.00
47815;BME280;33579;50.058;18.130;2023-11-19T03:53:00;99388.88;;;0.38;100.00
47815;BME280;33579;50.058;18.130;2023-11-19T03:54:02;99392.25;;;0.40;100.00
47815;BME280;33579;50.058;18.130;2023-11-19T03:55:04;99392.88;;;0.46;100.00
47815;BME280;33579;50.058;18.130;2023-11-19T03:56:06;99395.31;;;0.49;100.00
47815;BME280;33579;50.058;18.130;2023-11-19T03:57:08;99400.31;;;0.53;100.00
47815;BME280;33579;50.058;18.130;2023-11-19T03:58:10;99392.69;;;0.50;100.00
47815;BME280;33579;50.058;18.130;2023-11-19T03:59:12;99403.00;;;0.52;100.00
47815;BME280;33579;50.058;18.130;2023-11-19T04:00:14;99401.38;;;0.49;100.00
47815;BME280;33579;50.058;18.130;2023-11-19T04:01:16;99403.03;;;0.50;100.00
47815;BME280;33579;50.058;18.130;2023-11-19T04:02:18;99402.91;;;0.53;100.00
47815;BME280;33579;50.058;18.130;2023-11-19T04:03:20;99407.13;;;0.56;100.00
47815;BME280;33579;50.058;18.130;2023-11-19T04:04:22;99407.84;;;0.60;100.00
47815;BME280;33579;50.058;18.130;2023-11-19T04:05:24;99416.38;;;0.62;100.00
47815;BME280;33579;50.058;18.130;2023-11-19T04:06:26;99417.34;;;0.59;100.00
47815;BME280;33579;50.058;18.130;2023-11-19T04:07:27;99421.69;;;0.59;100.00
47815;BME280;33579;50.058;18.130;2023-11-19T04:08:29;99425.88;;;0.61;100.00
47815;BME280;33579;50.058;18.130;2023-11-19T04:09:31;99426.69;;;0.63;100.00
47815;BME280;33579;50.058;18.130;2023-11-19T04:10:33;99438.53;;;0.69;100.00
47815;BME280;33579;50.058;18.130;2023-11-19T04:11:35;99431.53;;;0.71;100.00
47815;BME280;33579;50.058;18.130;2023-11-19T04:12:37;99437.63;;;0.70;100.00
47815;BME280;33579;50.058;18.130;2023-11-19T04:13:39;99427.13;;;0.73;100.00
47815;BME280;33579;50.058;18.130;2023-11-19T04:14:41;99432.88;;;0.80;100.00
47815;BME280;33579;50.058;18.130;2023-11-19T04:15:42;99424.00;;;0.86;100.00
47815;BME280;33579;50.058;18.130;2023-11-19T04:16:44;99414.22;;;0.92;100.00
47815;BME280;33579;50.058;18.130;2023-11-19T04:17:46;99416.63;;;0.97;100.00
47815;BME280;33579;50.058;18.130;2023-11-19T04:18:48;99398.34;;;1.00;100.00
47815;BME280;33579;50.058;18.130;2023-11-19T04:19:49;99392.94;;;1.05;100.00
47815;BME280;33579;50.058;18.130;2023-11-19T04:20:52;99375.59;;;1.07;100.00
47815;BME280;33579;50.058;18.130;2023-11-19T04:21:53;99371.31;;;1.06;100.00
47815;BME280;33579;50.058;18.130;2023-11-19T04:22:55;99369.34;;;1.11;100.00
47815;BME280;33579;50.058;18.130;2023-11-19T04:23:57;99360.59;;;1.14;100.00
47815;BME280;33579;50.058;18.130;2023-11-19T04:24:59;99356.28;;;1.14;100.00
47815;BME280;33579;50.058;18.130;2023-11-19T04:26:04;99359.56;;;1.18;100.00
47815;BME280;33579;50.058;18.130;2023-11-19T04:27:08;99357.81;;;1.18;100.00
47815;BME280;33579;50.058;18.130;2023-11-19T04:28:10;99355.28;;;1.17;100.00
47815;BME280;33579;50.058;18.130;2023-11-19T04:29:16;99356.13;;;1.17;100.00
47815;BME280;33579;50.058;18.130;2023-11-19T04:30:19;99350.88;;;1.19;100.00
47815;BME280;33579;50.058;18.130;2023-11-19T04:31:20;99349.81;;;1.23;100.00
47815;BME280;33579;50.058;18.130;2023-11-19T04:32:22;99339.72;;;1.17;100.00
47815;BME280;33579;50.058;18.130;2023-11-19T04:33:24;99338.13;;;1.14;100.00
47815;BME280;33579;50.058;18.130;2023-11-19T04:34:26;99336.31;;;1.16;100.00
47815;BME280;33579;50.058;18.130;2023-11-19T04:35:28;99327.63;;;1.17;100.00
47815;BME280;33579;50.058;18.130;2023-11-19T04:36:29;99330.41;;;1.12;100.00
47815;BME280;33579;50.058;18.130;2023-11-19T04:37:31;99322.84;;;1.08;100.00
47815;BME280;33579;50.058;18.130;2023-11-19T04:38:33;99323.00;;;1.05;100.00
47815;BME280;33579;50.058;18.130;2023-11-19T04:39:35;99323.00;;;1.05;100.00
47815;BME280;33579;50.058;18.130;2023-11-19T04:40:37;99325.59;;;1.05;100.00
47815;BME280;33579;50.058;18.130;2023-11-19T04:41:48;99323.97;;;1.02;100.00
47815;BME280;33579;50.058;18.130;2023-11-19T04:42:51;99321.38;;;1.02;100.00
47815;BME280;33579;50.058;18.130;2023-11-19T04:43:53;99316.28;;;1.01;100.00
47815;BME280;33579;50.058;18.130;2023-11-19T04:44:55;99313.75;;;0.99;100.00
47815;BME280;33579;50.058;18.130;2023-11-19T04:45:57;99313.69;;;1.01;100.00
47815;BME280;33579;50.058;18.130;2023-11-19T04:46:59;99311.31;;;0.96;100.00
47815;BME280;33579;50.058;18.130;2023-11-19T04:48:01;99306.59;;;0.85;100.00
47815;BME280;33579;50.058;18.130;2023-11-19T04:49:03;99308.63;;;0.78;100.00
47815;BME280;33579;50.058;18.130;2023-11-19T04:50:05;99305.13;;;0.79;100.00
47815;BME280;33579;50.058;18.130;2023-11-19T04:51:07;99314.81;;;0.76;100.00
47815;BME280;33579;50.058;18.130;2023-11-19T04:52:09;99319.31;;;0.70;100.00
47815;BME280;33579;50.058;18.130;2023-11-19T04:53:11;99308.81;;;0.74;100.00
47815;BME280;33579;50.058;18.130;2023-11-19T04:54:13;99308.97;;;0.70;100.00
47815;BME280;33579;50.058;18.130;2023-11-19T04:55:15;99304.91;;;0.65;100.00
47815;BME280;33579;50.058;18.130;2023-11-19T04:56:16;99303.06;;;0.67;100.00
47815;BME280;33579;50.058;18.130;2023-11-19T04:57:18;99306.31;;;0.72;100.00
47815;BME280;33579;50.058;18.130;2023-11-19T04:58:20;99300.22;;;0.73;100.00
47815;BME280;33579;50.058;18.130;2023-11-19T04:59:21;99301.06;;;0.74;100.00
47815;BME280;33579;50.058;18.130;2023-11-19T05:00:23;99314.44;;;0.83;100.00
47815;BME280;33579;50.058;18.130;2023-11-19T05:01:25;99314.38;;;0.85;100.00
47815;BME280;33579;50.058;18.130;2023-11-19T05:02:26;99303.44;;;0.78;100.00
47815;BME280;33579;50.058;18.130;2023-11-19T05:03:28;99305.25;;;0.76;100.00
47815;BME280;33579;50.058;18.130;2023-11-19T05:04:31;99299.88;;;0.81;100.00
47815;BME280;33579;50.058;18.130;2023-11-19T05:05:33;99292.06;;;0.82;100.00
47815;BME280;33579;50.058;18.130;2023-11-19T05:06:35;99286.94;;;0.81;100.00
47815;BME280;33579;50.058;18.130;2023-11-19T05:07:36;99282.47;;;0.84;100.00
47815;BME280;33579;50.058;18.130;2023-11-19T05:08:38;99280.06;;;0.80;100.00
47815;BME280;33579;50.058;18.130;2023-11-19T05:09:40;99272.56;;;0.74;100.00
47815;BME280;33579;50.058;18.130;2023-11-19T05:10:42;99268.94;;;0.78;100.00
47815;BME280;33579;50.058;18.130;2023-11-19T05:11:44;99268.19;;;0.76;100.00
47815;BME280;33579;50.058;18.130;2023-11-19T05:12:48;99271.59;;;0.76;100.00
47815;BME280;33579;50.058;18.130;2023-11-19T05:13:50;99262.28;;;0.72;100.00
47815;BME280;33579;50.058;18.130;2023-11-19T05:14:52;99269.09;;;0.75;100.00
47815;BME280;33579;50.058;18.130;2023-11-19T05:15:53;99270.78;;;0.76;100.00
47815;BME280;33579;50.058;18.130;2023-11-19T05:16:55;99273.34;;;0.76;100.00
47815;BME280;33579;50.058;18.130;2023-11-19T05:17:57;99264.88;;;0.72;100.00
47815;BME280;33579;50.058;18.130;2023-11-19T05:18:59;99274.38;;;0.72;100.00
47815;BME280;33579;50.058;18.130;2023-11-19T05:20:01;99276.88;;;0.75;100.00
47815;BME280;33579;50.058;18.130;2023-11-19T05:21:02;99271.59;;;0.76;100.00
47815;BME280;33579;50.058;18.130;2023-11-19T05:22:04;99274.75;;;0.83;100.00
47815;BME280;33579;50.058;18.130;2023-11-19T05:23:06;99266.06;;;0.84;100.00
47815;BME280;33579;50.058;18.130;2023-11-19T05:24:22;99270.31;;;0.85;100.00
47815;BME280;33579;50.058;18.130;2023-11-19T05:25:24;99259.34;;;0.80;100.00